Anza Borrego Desert Research Center, California Weather observations

Data are for 10 minute period ending at time listed.
 Day   Time   Solar   Ave.   Ave.  Ave.  Vector  Max.   Baro.   Total    
  of    of     Rad.   Air    Rel.  Wind   Wind   Wind  Press.  Precip.   
Year   Day            Temp.  Hum.  Speed  Dir.   Gust                    
2014   (PST)  Kw/m2    F      %     mph   deg.    mph    mb.     in.     
-------------------------------------------------------------------------
 353    9:20   0.37   60.8    49    0.1    47     1.1   501.6    0.00 
 353    9:30   0.39   60.8    48    1.3    37     3.0   501.6    0.00 
 353    9:40   0.41   59.1    50    2.3    46     3.7   501.7    0.00 
 353    9:50   0.43   58.8    52    1.9    51     3.5   501.7    0.00 
 353   10:00   0.45   59.6    50    1.2    37     3.2   501.8    0.00 
 353   10:10   0.46   60.2    48    1.5    60     2.9   501.8    0.00 
 353   10:20   0.48   60.4    48    2.1    79     4.3   501.8    0.00 
 353   10:30   0.49   60.7    48    1.4    80     3.0   501.8    0.00 
 353   10:40   0.51   61.8    46    0.8    84     2.5   501.8    0.00 
 353   10:50   0.52   62.9    45    1.6   109     4.0   501.8    0.00 
 353   11:00   0.53   62.4    44    2.4   104     4.3   501.8    0.00 
 353   11:10   0.53   62.5    43    3.1   107     5.6   501.8    0.00 
 353   11:20   0.55   62.5    43    3.1   102     6.1   501.8    0.00 
 353   11:30   0.55   62.9    43    2.5    87     4.9   501.8    0.00 
 353   11:40   0.55   63.1    41    2.9    72     5.4   501.8    0.00 
 353   11:50   0.55   63.3    41    2.3    83     4.4   501.8    0.00 
 353   12:00   0.55   63.7    40    2.4    75     4.7   501.8    0.00 
 353   12:10   0.55   63.6    40    2.4    49     4.5   501.8    0.00 
 353   12:20   0.55   64.1    39    3.7    88     6.2   501.8    0.00 
 353   12:30   0.53   64.0    39    3.5    87     6.5   501.8    0.00 
 353   12:40   0.53   63.6    38    3.8    68     6.3   501.8    0.00 
 353   12:50   0.52   64.1    37    3.8    95     6.2   501.8    0.00 
 353   13:00   0.50   64.1    37    2.9   116     5.1   501.8    0.00 
 353   13:10   0.48   64.8    36    1.8   108     6.1   501.8    0.00 
 353   13:20   0.48   65.3    36    2.6   108     6.8   501.8    0.00 
 353   13:30   0.46   65.2    36    2.4   108     5.5   501.8    0.00 
 353   13:40   0.45   65.2    36    2.3   142     4.7   501.8    0.00 
 353   13:50   0.43   65.5    36    3.3    69     6.4   501.8    0.00 
 353   14:00   0.41   65.0    36    3.4    75     6.3   501.8    0.00 
 353   14:10   0.39   65.3    36    3.3    97     7.0   501.8    0.00 
 353   14:20   0.36   64.6    36    4.2   111     7.7   501.8    0.00 
 353   14:30   0.26   64.9    36    3.4    94     6.0   501.8    0.00 
 353   14:40   0.15   63.9    37    4.1   118     8.4   501.8    0.00 
 353   14:50   0.21   64.0    37    3.1    98     4.7   501.8    0.00 
 353   15:00   0.20   63.9    38    4.7   126     6.9   501.8    0.00 
 353   15:10   0.26   64.4    37    3.8   142     5.3   501.8    0.00 
 353   15:20   0.22   64.7    36    3.4   143     7.0   501.8    0.00 
 353   15:30   0.18   64.9    38    3.4   145     5.4   501.8    0.00 
 353   15:40   0.13   64.6    38    3.4   128     5.4   501.8    0.00 
 353   15:50   0.08   63.4    41    4.0   107     5.6   501.8    0.00 
 353   16:00   0.05   62.4    42    4.3    95     5.8   501.8    0.00 
 353   16:10   0.03   61.8    44    3.8   102     5.3   501.8    0.00 
 353   16:20   0.02   61.2    46    4.0   115     5.8   501.8    0.00 
 353   16:30   0.00   60.6    47    3.9   126     5.6   501.8    0.00 
 353   16:40   0.00   60.2    48    4.4   139     6.5   501.7    0.00 
 353   16:50   0.00   59.9    48    3.9   150     5.6   501.7    0.00 
 353   17:00   0.00   59.3    51    2.1   225     3.7   501.7    0.00 
 353   17:10   0.00   58.4    53    2.2   228     3.7   501.7    0.00 
 353   17:20   0.00   58.4    52    2.3   221     3.4   501.7    0.00 
 353   17:30   0.00   58.1    53    2.2   214     3.4   501.6    0.00 
 353   17:40   0.00   57.5    56    3.1   230     3.9   501.6    0.00 
 353   17:50   0.00   57.1    56    3.0   233     4.5   501.6    0.00 
 353   18:00   0.00   56.6    58    3.8   233     5.2   501.6    0.00 
 353   18:10   0.00   56.4    58    2.4   227     3.7   501.6    0.00 
 353   18:20   0.00   55.8    60    1.7   256     3.3   501.6    0.00 
 353   18:30   0.00   55.7    60    2.5   284     3.6   501.6    0.00 
 353   18:40   0.00   55.7    60    0.8   273     2.0   501.6    0.00 
 353   18:50   0.00   54.9    62    0.9   254     2.6   501.6    0.00 
 353   19:00   0.00   54.1    64    3.0   232     4.2   501.6    0.00 
 353   19:10   0.00   53.4    64    4.6   229     5.8   501.6    0.00 
 353   19:20   0.00   53.6    63    5.1   222     6.4   501.6    0.00 
 353   19:30   0.00   54.5    60    4.3   222     6.1   501.6    0.00 
 353   19:40   0.00   53.3    63    3.7   254     4.6   501.6    0.00 
 353   19:50   0.00   52.2    66    1.8   264     3.5   501.6    0.00 
 353   20:00   0.00   51.8    66    3.1   236     4.9   501.6    0.00 
 353   20:10   0.00   51.6    67    5.7   231     6.9   501.6    0.00 
 353   20:20   0.00   51.1    68    5.1   243     6.1   501.6    0.00 
 353   20:30   0.00   50.8    69    4.3   247     5.8   501.6    0.00 
 353   20:40   0.00   51.3    68    3.8   273     5.0   501.6    0.00 
 353   20:50   0.00   50.7    70    2.4   315     3.9   501.6    0.00 
 353   21:00   0.00   51.5    67    2.2   270     3.0   501.6    0.00 
 353   21:10   0.00   51.5    67    5.2   235     7.7   501.6    0.00 
 353   21:20   0.00   51.1    68    6.6   238     9.1   501.6    0.00 
 353   21:30   0.00   51.6    67    6.4   229     7.6   501.6    0.00 
 353   21:40   0.00   51.4    67    5.2   232     7.2   501.6    0.00 
 353   21:50   0.00   52.3    64    5.6   237     7.3   501.6    0.00 
 353   22:00   0.00   51.1    67    4.4   228     5.6   501.6    0.00 
 353   22:10   0.00   50.7    68    6.6   241     8.2   501.6    0.00 
 353   22:20   0.00   51.4    66    7.2   237     8.0   501.6    0.00 
 353   22:30   0.00   51.4    66    7.6   223     8.8   501.6    0.00 
 353   22:40   0.00   51.6    66    5.1   219     6.5   501.6    0.00 
 353   22:50   0.00   51.0    67    3.2   248     4.7   501.6    0.00 
 353   23:00   0.00   50.4    70    1.7   284     3.7   501.6    0.00 
 353   23:10   0.00   49.2    74    1.2   307     2.0   501.6    0.00 
 353   23:20   0.00   49.5    72    2.4   300     3.3   501.6    0.00 
 353   23:30   0.00   47.8    75    3.7   230     5.0   501.6    0.00 
 353   23:40   0.00   48.0    75    4.7   252     6.1   501.6    0.00 
 353   23:50   0.00   48.1    74    4.3   228     5.0   501.6    0.00 
 354    0:00   0.00   47.8    75    5.4   231     6.6   501.6    0.00 
 354    0:10   0.00   48.3    74    6.4   241     7.1   501.6    0.00 
 354    0:20   0.00   48.7    72    6.7   232     7.7   501.6    0.00 
 354    0:30   0.00   49.5    69    6.2   238     7.7   501.6    0.00 
 354    0:40   0.00   49.2    70    3.9   245     5.1   501.6    0.00 
 354    0:50   0.00   48.9    70    3.6   235     4.7   501.6    0.00 
 354    1:00   0.00   49.2    69    4.1   240     5.7   501.6    0.00 
 354    1:10   0.00   48.5    70    5.2   237     6.2   501.6    0.00 
 354    1:20   0.00   48.5    70    5.6   213     6.2   501.6    0.00 
 354    1:30   0.00   49.2    67    5.7   233     6.9   501.6    0.00 
 354    1:40   0.00   49.3    66    5.3   230     6.4   501.6    0.00 
 354    1:50   0.00   49.8    64    5.2   229     5.9   501.6    0.00 
 354    2:00   0.00   48.5    68    3.7   214     5.7   501.6    0.00 
 354    2:10   0.00   48.3    70    1.5   250     2.9   501.6    0.00 
 354    2:20   0.00   47.7    71    3.1   275     3.9   501.6    0.00 
 354    2:30   0.00   46.7    73    4.3   228     4.9   501.6    0.00 
 354    2:40   0.00   46.5    74    4.0   244     5.0   501.6    0.00 
 354    2:50   0.00   46.1    76    4.7   252     5.8   501.6    0.00 
 354    3:00   0.00   47.4    72    3.9   260     5.3   501.6    0.00 
 354    3:10   0.00   47.9    71    2.8   298     5.3   501.6    0.00 
 354    3:20   0.00   49.1    69    2.3   276     3.1   501.6    0.00 
 354    3:30   0.00   49.8    66    2.3   254     3.1   501.6    0.00 
 354    3:40   0.00   47.1    72    1.8   247     2.4   501.6    0.00 
 354    3:50   0.00   47.7    69    0.6   202     1.5   501.6    0.00 
 354    4:00   0.00   46.9    71    3.5   245     4.8   501.6    0.00 
 354    4:10   0.00   47.5    69    3.7   254     5.2   501.6    0.00 
 354    4:20   0.00   46.8    72    2.6   233     3.9   501.6    0.00 
 354    4:30   0.00   46.6    72    2.0   190     3.3   501.6    0.00 
 354    4:40   0.00   45.5    74    3.2   262     4.5   501.6    0.00 
 354    4:50   0.00   45.2    75    2.9   267     4.2   501.6    0.00 
 354    5:00   0.00   45.4    74    2.4   260     3.4   501.6    0.00 
 354    5:10   0.00   45.5    73    2.0   241     2.9   501.6    0.00 
 354    5:20   0.00   46.7    69    2.8   232     4.0   501.6    0.00 
 354    5:30   0.00   45.5    73    2.3   245     3.6   501.6    0.00 
 354    5:40   0.00   45.3    75    3.9   263     5.8   501.6    0.00 
 354    5:50   0.00   46.1    73    4.0   271     5.8   501.6    0.00 
 354    6:00   0.00   47.0    70    3.1   260     4.4   501.6    0.00 
 354    6:10   0.00   47.3    69    4.3   235     6.0   501.6    0.00 
 354    6:20   0.00   47.6    67    7.0   238     8.4   501.6    0.00 
 354    6:30   0.00   49.7    62    7.5   243     9.0   501.6    0.00 
 354    6:40   0.00   49.4    63    5.4   216     7.4   501.6    0.00 
 354    6:50   0.00   49.5    62    3.9   206     5.7   501.6    0.00 
 354    7:00   0.01   49.4    63    1.6   204     3.5   501.6    0.00 
 354    7:10   0.02   49.0    65    2.2   212     3.4   501.6    0.00 
 354    7:20   0.04   49.8    63    2.9   216     3.5   501.6    0.00 
 354    7:30   0.04   49.3    66    3.6   236     4.8   501.6    0.00 
 354    7:40   0.05   49.7    66    2.5   299     4.8   501.6    0.00 
 354    7:50   0.06   47.9    71    0.9    64     2.1   501.6    0.00 
 354    8:00   0.07   47.2    74    1.6   328     2.8   501.6    0.00 
 354    8:10   0.08   47.8    72    3.5   229     5.3   501.6    0.00 
 354    8:20   0.09   49.7    69    5.3   240     6.9   501.6    0.00 
 354    8:30   0.12   52.3    64    2.7   233     4.4   501.6    0.00 
 354    8:40   0.13   53.0    65    3.0   334     5.3   501.6    0.00 
 354    8:50   0.16   53.3    61    1.9   344     4.6   501.6    0.00 
 354    9:00   0.23   55.2    58    3.3   210     5.2   501.6    0.00 
 354    9:10   0.31   56.8    54    3.9   249     5.0   501.6    0.00 

Return to Anza Borrego Desert Research Center graphs page.


Western Regional Climate Center,wrcc@dri.edu